Latest Flight | Flight Log | Data Trends | Login | Join FlightData.com!
Date Range From To
Export:
Flight Log - N804SG - Click on row to view flight. Click on header to sort.
Date Origin Dest Depart Arrive Hobbs Flight Time Flight Distance Fuel Fuel/hr Fuel/nm Altitude Gnd Speed
Thu, Jul 2, 2020 KDVO KDVO 20:55 22:07 1.19 hrs 0.82 hrs 85.67 nm 10.71 gal 9.01 gal/hr 0.13 gal/nm 3752 msl 102 kts
Thu, Jul 2, 2020 KDVO KDVO 20:40 20:41 0.02 hrs 0.00 hrs 0.00 nm 0.63 gal 33.35 gal/hr 0.00 gal/nm 0 msl 0 kts
Wed, Jul 1, 2020 KDVO KDVO 19:53 20:00 0.12 hrs 0.00 hrs 0.00 nm 0.03 gal 0.25 gal/hr 0.00 gal/nm 0 msl 0 kts
Wed, Jul 1, 2020 KDVO KDVO 17:20 19:12 1.84 hrs 1.26 hrs 132.83 nm 16.14 gal 8.78 gal/hr 0.12 gal/nm 3969 msl 104 kts
Wed, Jul 1, 2020 KDVO KDVO 17:03 17:05 0.04 hrs 0.00 hrs 0.00 nm 0.16 gal 4.50 gal/hr 0.00 gal/nm 0 msl 0 kts
Wed, Jul 1, 2020     03:04 03:05 0.01 hrs 0.00 hrs 0.00 nm 7.96 gal 651.27 gal/hr 0.00 gal/nm 0 msl 0 kts
Wed, Jul 1, 2020 KDVO KDVO 00:11 01:13 1.02 hrs 0.66 hrs 71.07 nm 9.28 gal 9.06 gal/hr 0.13 gal/nm 3912 msl 107 kts
Tue, Jun 30, 2020 KDVO KDVO 23:46 23:48 0.03 hrs 0.00 hrs 0.00 nm 3.23 gal 111.81 gal/hr 0.00 gal/nm 0 msl 0 kts
Tue, Jun 30, 2020 KDVO KDVO 21:25 22:37 1.18 hrs 0.79 hrs 88.73 nm 10.21 gal 8.66 gal/hr 0.12 gal/nm 4322 msl 111 kts
Tue, Jun 30, 2020 KDVO KDVO 21:07 21:09 0.04 hrs 0.00 hrs 0.00 nm 5.50 gal 141.43 gal/hr 0.00 gal/nm 0 msl 0 kts
Tue, Jun 30, 2020 KDVO KDVO 20:41 21:05 0.39 hrs 0.00 hrs 0.00 nm 0.99 gal 2.55 gal/hr 0.00 gal/nm 0 msl 0 kts
Tue, Jun 30, 2020 KDVO KDVO 18:30 19:11 0.68 hrs 0.32 hrs 38.78 nm 5.13 gal 7.57 gal/hr 0.13 gal/nm 3928 msl 120 kts
Tue, Jun 30, 2020 KDVO KDVO 17:49 17:52 0.05 hrs 0.00 hrs 0.00 nm 0.32 gal 7.02 gal/hr 0.00 gal/nm 0 msl 0 kts
Mon, Jun 29, 2020 KDVO KDVO 23:46 23:53 0.12 hrs 0.00 hrs 0.00 nm 0.04 gal 0.34 gal/hr 0.00 gal/nm 0 msl 0 kts
Mon, Jun 29, 2020 KHAF KDVO 21:03 21:55 0.86 hrs 0.54 hrs 61.95 nm 7.62 gal 8.90 gal/hr 0.12 gal/nm 5012 msl 114 kts
Mon, Jun 29, 2020 KDVO KHAF 19:56 21:00 1.05 hrs 0.44 hrs 56.47 nm 7.43 gal 7.08 gal/hr 0.13 gal/nm 5038 msl 127 kts
Mon, Jun 29, 2020     19:48 19:49 0.01 hrs 0.00 hrs 0.00 nm 0.14 gal 15.75 gal/hr 0.00 gal/nm 0 msl 0 kts
Mon, Jun 29, 2020 KDVO KDVO 17:36 19:07 1.5 hrs 0.00 hrs 0.00 nm 0.10 gal 0.07 gal/hr 0.00 gal/nm 0 msl 0 kts
Sun, Jun 28, 2020 KDVO KDVO 17:33 19:13 1.64 hrs 0.93 hrs 96.97 nm 12.93 gal 7.89 gal/hr 0.13 gal/nm 3475 msl 103 kts
Sun, Jun 28, 2020 KDVO KDVO 17:14 17:16 0.03 hrs 0.00 hrs 0.00 nm 0.88 gal 30.46 gal/hr 0.00 gal/nm 0 msl 0 kts
Sat, Jun 27, 2020 KDVO KDVO 21:19 22:59 1.64 hrs 1.05 hrs 111.46 nm 14.40 gal 8.79 gal/hr 0.13 gal/nm 3615 msl 104 kts
Sat, Jun 27, 2020 KDVO KDVO 20:57 21:01 0.06 hrs 0.00 hrs 0.00 nm 0.46 gal 8.28 gal/hr 0.00 gal/nm 0 msl 0 kts
Sat, Jun 27, 2020 KDVO KDVO 19:58 19:58 0.01 hrs 0.00 hrs 0.00 nm 0.04 gal 4.24 gal/hr 0.00 gal/nm 0 msl 0 kts
Sat, Jun 27, 2020 KDVO KDVO 19:28 19:30 0.03 hrs 0.00 hrs 0.00 nm 0.11 gal 4.40 gal/hr 0.00 gal/nm 0 msl 0 kts
Sat, Jun 27, 2020 KDVO KDVO 18:58 19:00 0.04 hrs 0.00 hrs 0.00 nm 0.58 gal 13.83 gal/hr 0.00 gal/nm 0 msl 0 kts
Sat, Jun 27, 2020 KDVO KDVO 16:27 17:55 1.43 hrs 0.67 hrs 76.77 nm 10.82 gal 7.56 gal/hr 0.14 gal/nm 5014 msl 112 kts
Sat, Jun 27, 2020     16:10 16:11 0.02 hrs 0.00 hrs 0.00 nm 2.01 gal 106.41 gal/hr 0.00 gal/nm 0 msl 0 kts
Fri, Jun 26, 2020 KMYF O56 22:47 02:29 3.64 hrs 3.20 hrs 441.03 nm 38.26 gal 10.52 gal/hr 0.09 gal/nm 10017 msl 136 kts
Fri, Jun 26, 2020 KMYF KMYF 22:37 22:41 0.05 hrs 0.00 hrs 0.00 nm 0.21 gal 4.00 gal/hr 0.00 gal/nm 0 msl 0 kts
Fri, Jun 26, 2020 KDVO KMYF 14:20 17:37 3.23 hrs 3.01 hrs 452.78 nm 34.23 gal 10.60 gal/hr 0.08 gal/nm 11068 msl 148 kts
Fri, Jun 26, 2020     14:10 14:10 0 hrs 0.00 hrs 0.00 nm 0.05 gal 22.50 gal/hr 0.00 gal/nm 0 msl 0 kts
Thu, Jun 25, 2020 KDVO KDVO 23:01 00:41 1.64 hrs 0.90 hrs 112.41 nm 13.39 gal 8.19 gal/hr 0.12 gal/nm 5012 msl 123 kts
Thu, Jun 25, 2020     22:56 22:57 0.01 hrs 0.00 hrs 0.00 nm 2.33 gal 262.12 gal/hr 0.00 gal/nm 0 msl 0 kts
Thu, Jun 25, 2020 KDVO KDVO 00:36 01:33 0.93 hrs 0.42 hrs 51.05 nm 6.84 gal 7.37 gal/hr 0.13 gal/nm 3701 msl 119 kts
Wed, Jun 24, 2020 KDVO KDVO 23:57 00:01 0.07 hrs 0.00 hrs 0.00 nm 15.66 gal 238.88 gal/hr 0.00 gal/nm 0 msl 0 kts
Wed, Jun 24, 2020 KDVO KDVO 18:56 18:59 0.05 hrs 0.00 hrs 0.00 nm 0.14 gal 2.81 gal/hr 0.00 gal/nm 0 msl 0 kts
Tue, Jun 23, 2020 KDVO KDVO 23:41 00:51 1.16 hrs 0.65 hrs 72.13 nm 9.56 gal 8.25 gal/hr 0.13 gal/nm 3156 msl 109 kts
Tue, Jun 23, 2020     23:31 23:32 0.01 hrs 0.00 hrs 0.00 nm 0.18 gal 34.11 gal/hr 0.00 gal/nm 0 msl 0 kts
Tue, Jun 23, 2020 KSTS KDVO 20:11 20:48 0.61 hrs 0.28 hrs 35.25 nm 4.70 gal 7.73 gal/hr 0.13 gal/nm 2667 msl 123 kts
Tue, Jun 23, 2020 KDVO KSTS 17:48 18:22 0.56 hrs 0.25 hrs 29.70 nm 4.12 gal 7.42 gal/hr 0.14 gal/nm 2513 msl 117 kts
Tue, Jun 23, 2020 KDVO KDVO 17:25 17:28 0.05 hrs 0.00 hrs 0.00 nm 0.14 gal 2.90 gal/hr 0.00 gal/nm 0 msl 0 kts
Tue, Jun 23, 2020     17:24 17:24 0.01 hrs 0.00 hrs 0.00 nm 0.02 gal 3.60 gal/hr 0.00 gal/nm 0 msl 0 kts
Mon, Jun 22, 2020 KDVO KDVO 23:16 00:23 1.11 hrs 0.76 hrs 89.45 nm 10.81 gal 9.75 gal/hr 0.12 gal/nm 3011 msl 116 kts
Mon, Jun 22, 2020     23:01 23:02 0.01 hrs 0.00 hrs 0.00 nm 0.09 gal 17.05 gal/hr 0.00 gal/nm 0 msl 0 kts
Sun, Jun 21, 2020 KLVK KDVO 21:37 22:20 0.72 hrs 0.41 hrs 48.79 nm 6.09 gal 8.47 gal/hr 0.12 gal/nm 3597 msl 117 kts
Sun, Jun 21, 2020 KDVO LPCS 19:41 20:35 0.88 hrs 0.60 hrs 79.97 nm 8.67 gal 9.83 gal/hr 0.11 gal/nm 5009 msl 131 kts
Sun, Jun 21, 2020 KDVO KDVO 19:31 19:33 0.03 hrs 0.00 hrs 0.00 nm 4.15 gal 128.79 gal/hr 0.00 gal/nm 0 msl 0 kts
Sat, Jun 20, 2020 KDVO KDVO 23:39 23:40 0.03 hrs 0.00 hrs 0.00 nm 0.76 gal 23.38 gal/hr 0.00 gal/nm 0 msl 0 kts
Fri, Jun 19, 2020 O69 KDVO 21:58 22:20 0.36 hrs 0.14 hrs 13.82 nm 2.30 gal 6.49 gal/hr 0.17 gal/nm 2017 msl 99 kts
Fri, Jun 19, 2020 KSTS O69 19:59 21:46 1.75 hrs 1.04 hrs 133.86 nm 14.78 gal 8.44 gal/hr 0.11 gal/nm 5013 msl 127 kts
Fri, Jun 19, 2020 KDVO KSTS 18:45 19:24 0.63 hrs 0.28 hrs 32.88 nm 4.53 gal 7.25 gal/hr 0.14 gal/nm 2577 msl 117 kts
Fri, Jun 19, 2020 KDVO KDVO 18:34 18:37 0.04 hrs 0.00 hrs 0.00 nm 1.06 gal 27.26 gal/hr 0.00 gal/nm 0 msl 0 kts
Fri, Jun 19, 2020 KDVO KDVO 00:43 00:45 0.04 hrs 0.00 hrs 0.00 nm 4.37 gal 122.91 gal/hr 0.00 gal/nm 0 msl 0 kts
Thu, Jun 18, 2020 KMIT KDVO 21:24 23:20 1.91 hrs 1.64 hrs 236.13 nm 22.37 gal 11.74 gal/hr 0.09 gal/nm 6525 msl 142 kts
Thu, Jun 18, 2020 KSEZ KMIT 18:04 21:01 2.92 hrs 2.61 hrs 393.97 nm 32.88 gal 11.28 gal/hr 0.08 gal/nm 8581 msl 149 kts
Thu, Jun 18, 2020 KAMA KSEZ 13:12 17:13 3.95 hrs 3.66 hrs 512.34 nm 44.05 gal 11.15 gal/hr 0.09 gal/nm 10637 msl 138 kts
Thu, Jun 18, 2020 KAMA KAMA 13:08 13:12 0.06 hrs 0.00 hrs 0.00 nm 0.16 gal 2.76 gal/hr 0.00 gal/nm 0 msl 0 kts
Thu, Jun 18, 2020     12:47 12:47 0.01 hrs 0.00 hrs 0.00 nm 0.01 gal 1.80 gal/hr 0.00 gal/nm 0 msl 0 kts
Wed, Jun 17, 2020 F28 KAMA 18:10 19:49 1.63 hrs 1.36 hrs 189.04 nm 19.31 gal 11.86 gal/hr 0.10 gal/nm 8515 msl 138 kts
Wed, Jun 17, 2020 KJBR F28 14:42 17:35 2.85 hrs 2.60 hrs 378.96 nm 35.70 gal 12.55 gal/hr 0.09 gal/nm 8518 msl 144 kts
Wed, Jun 17, 2020 KTYS KJBR 11:39 14:10 2.48 hrs 2.14 hrs 337.31 nm 29.19 gal 11.76 gal/hr 0.09 gal/nm 6038 msl 155 kts
Wed, Jun 17, 2020     11:11 11:12 0.02 hrs 0.00 hrs 0.00 nm 0.00 gal 0.00 gal/hr 0.00 gal/nm 0 msl 0 kts
Tue, Jun 16, 2020 KTYS KTYS 21:51 21:52 0.03 hrs 0.00 hrs 0.00 nm 0.16 gal 6.40 gal/hr 0.00 gal/nm 0 msl 0 kts
Tue, Jun 16, 2020 KBNA KTYS 19:18 21:49 2.46 hrs 1.65 hrs 212.62 nm 23.96 gal 9.72 gal/hr 0.11 gal/nm 7025 msl 127 kts
Tue, Jun 16, 2020 KTYS KBNA 14:29 16:48 2.28 hrs 1.64 hrs 234.57 nm 23.63 gal 10.34 gal/hr 0.10 gal/nm 6128 msl 141 kts
Tue, Jun 16, 2020     14:04 14:07 0.04 hrs 0.00 hrs 0.00 nm 0.32 gal 8.23 gal/hr 0.00 gal/nm 0 msl 0 kts
Mon, Jun 15, 2020 KTYS KTYS 14:52 15:53 1 hrs 0.47 hrs 59.46 nm 7.68 gal 7.66 gal/hr 0.13 gal/nm 6121 msl 124 kts
Mon, Jun 15, 2020 KTYS KTYS 14:13 14:14 0.02 hrs 0.00 hrs 0.00 nm 0.08 gal 3.60 gal/hr 0.00 gal/nm 0 msl 0 kts
Mon, Jun 15, 2020     14:10 14:11 0 hrs 0.00 hrs 0.00 nm 0.06 gal 43.20 gal/hr 0.00 gal/nm 0 msl 0 kts
Mon, Jun 15, 2020 KTYS KTYS 13:34 13:36 0.04 hrs 0.00 hrs 0.00 nm 0.13 gal 3.10 gal/hr 0.00 gal/nm 0 msl 0 kts
Fri, Jun 12, 2020     15:56 15:56 0.01 hrs 0.00 hrs 0.00 nm 0.18 gal 15.07 gal/hr 0.00 gal/nm 0 msl 0 kts
Tue, Jun 9, 2020 KSDF KTYS 12:44 14:34 1.81 hrs 1.42 hrs 175.22 nm 20.54 gal 11.35 gal/hr 0.12 gal/nm 7114 msl 122 kts
Tue, Jun 9, 2020     12:36 12:37 0.01 hrs 0.00 hrs 0.00 nm 0.03 gal 3.37 gal/hr 0.00 gal/nm 0 msl 0 kts
Mon, Jun 8, 2020 KBMI KSDF 22:51 00:43 1.84 hrs 1.64 hrs 208.83 nm 21.77 gal 11.86 gal/hr 0.10 gal/nm 5030 msl 125 kts
Mon, Jun 8, 2020 KDLH KBMI 18:46 22:28 3.64 hrs 3.29 hrs 414.65 nm 42.11 gal 11.58 gal/hr 0.10 gal/nm 7055 msl 124 kts
Mon, Jun 8, 2020     18:42 18:42 0.01 hrs 0.00 hrs 0.00 nm 0.33 gal 36.00 gal/hr 0.00 gal/nm 0 msl 0 kts
Fri, Jun 5, 2020     19:47 19:47 0.01 hrs 0.00 hrs 0.00 nm 0.03 gal 3.48 gal/hr 0.00 gal/nm 0 msl 0 kts
Tue, Jun 2, 2020     19:03 19:03 0.01 hrs 0.00 hrs 0.00 nm 0.03 gal 6.00 gal/hr 0.00 gal/nm 0 msl 0 kts
Tue, Jun 2, 2020 KDLH KDLH 18:11 18:15 0.07 hrs 0.00 hrs 0.00 nm 0.11 gal 1.61 gal/hr 0.00 gal/nm 0 msl 0 kts
Tue, Jun 2, 2020 KDLH KDLH 16:57 17:11 0.23 hrs 0.00 hrs 0.00 nm 1.03 gal 4.45 gal/hr 0.00 gal/nm 0 msl 0 kts
Mon, Jun 1, 2020     14:02 14:02 0 hrs 0.00 hrs 0.00 nm 0.01 gal 6.00 gal/hr 0.00 gal/nm 0 msl 0 kts
Mon, Jun 1, 2020 KDLH KDLH 13:36 13:41 0.09 hrs 0.00 hrs 0.13 nm 0.05 gal 0.59 gal/hr 0.38 gal/nm 1395 msl 139 kts
          62.10 hrs 43.54 hrs 5767.05 nm 641.20 gal